createdAt,value
2023-04-16T00:01:46.912Z,64.72
2023-04-16T00:04:33.886Z,64.70
2023-04-16T00:07:10.802Z,64.88
2023-04-16T00:09:47.024Z,64.75
2023-04-16T00:12:23.054Z,65.03
2023-04-16T00:14:54.516Z,65.17
2023-04-16T00:17:36.675Z,65.40
2023-04-16T00:20:14.336Z,65.41
2023-04-16T00:23:17.429Z,65.15
2023-04-16T00:26:10.488Z,65.43
2023-04-16T00:28:49.994Z,65.08
2023-04-16T00:31:21.118Z,65.24
2023-04-16T00:34:05.816Z,65.25
2023-04-16T00:36:39.423Z,65.45
2023-04-16T00:39:12.358Z,65.61
2023-04-16T00:41:46.419Z,65.40
2023-04-16T00:44:16.605Z,65.23
2023-04-16T00:46:47.447Z,65.42
2023-04-16T00:49:17.889Z,65.25
2023-04-16T00:51:48.270Z,65.24
2023-04-16T00:54:21.452Z,65.38
2023-04-16T00:56:52.446Z,65.58
2023-04-16T00:59:23.030Z,65.72
2023-04-16T01:01:53.313Z,65.69
2023-04-16T01:04:23.831Z,65.85
2023-04-16T01:06:54.044Z,65.82
2023-04-16T01:09:26.907Z,65.83
2023-04-16T01:11:56.978Z,65.76
2023-04-16T01:14:27.060Z,65.46
2023-04-16T01:16:57.205Z,65.65
2023-04-16T01:19:28.825Z,65.55
2023-04-16T01:22:01.738Z,65.83
2023-04-16T01:24:31.973Z,65.75
2023-04-16T01:27:02.538Z,65.63
2023-04-16T01:29:32.774Z,65.77
2023-04-16T01:32:04.064Z,65.92
2023-04-16T01:34:39.628Z,65.48
2023-04-16T01:37:12.566Z,65.37
2023-04-16T01:39:42.689Z,65.46
2023-04-16T01:42:12.722Z,65.14
2023-04-16T01:44:42.725Z,65.51
2023-04-16T01:47:12.959Z,65.47
2023-04-16T01:49:44.118Z,65.33
2023-04-16T01:52:16.987Z,65.37
2023-04-16T01:54:47.170Z,65.51
2023-04-16T01:57:17.272Z,65.53
2023-04-16T01:59:47.501Z,65.79
2023-04-16T02:02:18.917Z,65.67
2023-04-16T02:04:49.401Z,65.67
2023-04-16T02:07:22.261Z,65.61
2023-04-16T02:09:52.963Z,65.61
2023-04-16T02:12:23.501Z,65.52
2023-04-16T02:14:53.581Z,65.65
2023-04-16T02:17:24.152Z,65.53
2023-04-16T02:20:08.124Z,65.47
2023-04-16T02:22:43.577Z,65.51
2023-04-16T02:25:17.047Z,65.58
2023-04-16T02:27:47.163Z,65.52
2023-04-16T02:30:28.859Z,65.54
2023-04-16T02:32:59.244Z,65.71
2023-04-16T02:35:30.446Z,65.51
2023-04-16T02:38:04.369Z,65.78
2023-04-16T02:40:35.263Z,65.82
2023-04-16T02:43:05.912Z,65.79
2023-04-16T02:45:36.404Z,65.78
2023-04-16T02:48:07.433Z,66.07
2023-04-16T02:50:37.556Z,66.20
2023-04-16T02:53:10.951Z,66.04
2023-04-16T02:55:41.296Z,66.07
2023-04-16T02:58:11.536Z,66.19
2023-04-16T03:00:41.686Z,66.22
2023-04-16T03:03:11.801Z,66.06
2023-04-16T03:05:42.000Z,66.14
2023-04-16T03:08:14.793Z,66.23
2023-04-16T03:10:44.922Z,66.18
2023-04-16T03:13:14.988Z,66.32
2023-04-16T03:15:45.048Z,66.37
2023-04-16T03:18:15.222Z,66.03
2023-04-16T03:20:45.587Z,65.84
2023-04-16T03:23:18.349Z,65.81
2023-04-16T03:25:48.605Z,65.61
2023-04-16T03:28:21.570Z,65.64
2023-04-16T03:30:55.359Z,65.50
2023-04-16T03:33:26.373Z,65.32
2023-04-16T03:35:59.869Z,65.41
2023-04-16T03:38:36.349Z,65.46
2023-04-16T03:41:06.860Z,65.30
2023-04-16T03:43:37.155Z,65.25
2023-04-16T03:46:08.184Z,65.32
2023-04-16T03:48:38.460Z,65.11
2023-04-16T03:51:09.050Z,65.04
2023-04-16T03:53:41.788Z,65.33
2023-04-16T03:56:12.186Z,65.21
2023-04-16T03:58:42.305Z,65.55
2023-04-16T04:01:12.362Z,65.47
2023-04-16T04:03:42.820Z,65.69
2023-04-16T04:06:13.396Z,65.80
2023-04-16T04:08:46.283Z,66.00
2023-04-16T04:11:17.675Z,66.18
2023-04-16T04:13:48.327Z,66.35
2023-04-16T04:16:18.403Z,66.14
2023-04-16T04:18:48.505Z,66.03
2023-04-16T04:21:18.681Z,65.76
2023-04-16T04:23:51.508Z,66.00
2023-04-16T04:26:21.631Z,65.89
2023-04-16T04:28:51.820Z,65.78
2023-04-16T04:31:22.267Z,65.84
2023-04-16T04:33:52.491Z,65.93
2023-04-16T04:36:22.708Z,65.65
2023-04-16T04:38:56.082Z,65.84
2023-04-16T04:41:27.054Z,66.13
2023-04-16T04:43:57.262Z,66.17
2023-04-16T04:46:28.948Z,65.79
2023-04-16T04:49:01.912Z,65.70
2023-04-16T04:51:32.073Z,65.53
2023-04-16T04:54:04.740Z,65.46
2023-04-16T04:56:34.941Z,65.03
2023-04-16T04:59:05.024Z,64.57
2023-04-16T05:01:36.445Z,64.59
2023-04-16T05:04:06.859Z,64.48
2023-04-16T05:06:37.002Z,64.47
2023-04-16T05:09:11.933Z,64.77
2023-04-16T05:11:42.203Z,64.83
2023-04-16T05:14:12.316Z,65.04
2023-04-16T05:16:42.352Z,65.12
2023-04-16T05:19:12.537Z,64.99
2023-04-16T05:21:42.588Z,65.05
2023-04-16T05:24:19.368Z,65.16
2023-04-16T05:26:49.379Z,64.96
2023-04-16T05:29:19.418Z,65.10
2023-04-16T05:31:49.559Z,65.08
2023-04-16T05:34:19.672Z,65.05
2023-04-16T05:36:49.856Z,64.91
2023-04-16T05:39:22.684Z,64.99
2023-04-16T05:41:55.897Z,64.77
2023-04-16T05:44:26.022Z,64.78
2023-04-16T05:46:56.037Z,65.12
2023-04-16T05:49:26.140Z,65.29
2023-04-16T05:51:56.274Z,65.17
2023-04-16T05:54:28.986Z,65.24
2023-04-16T05:56:59.459Z,65.32
2023-04-16T05:59:29.535Z,65.59
2023-04-16T06:02:00.039Z,65.71
2023-04-16T06:04:31.152Z,65.86
2023-04-16T06:07:01.167Z,65.73
2023-04-16T06:09:33.896Z,65.45
2023-04-16T06:12:06.655Z,65.43
2023-04-16T06:14:36.810Z,65.41
2023-04-16T06:17:06.867Z,65.49
2023-04-16T06:19:38.716Z,65.16
2023-04-16T06:22:08.838Z,65.19
2023-04-16T06:24:41.544Z,65.48
2023-04-16T06:27:11.568Z,65.44
2023-04-16T06:29:42.044Z,64.90
2023-04-16T06:32:12.167Z,64.65
2023-04-16T06:34:42.163Z,64.59
2023-04-16T06:37:12.245Z,64.29
2023-04-16T06:39:45.022Z,64.35
2023-04-16T06:42:15.102Z,64.07
2023-04-16T06:44:45.327Z,63.91
2023-04-16T06:47:15.321Z,64.10
2023-04-16T06:49:45.494Z,64.04
2023-04-16T06:52:15.953Z,64.02
2023-04-16T06:54:48.782Z,63.99
2023-04-16T06:57:19.036Z,64.00
2023-04-16T06:59:49.084Z,63.97
2023-04-16T07:02:19.316Z,63.49
2023-04-16T07:04:49.442Z,63.52
2023-04-16T07:07:19.547Z,63.01
2023-04-16T07:09:52.594Z,63.38
2023-04-16T07:12:23.324Z,63.25
2023-04-16T07:14:55.913Z,63.42
2023-04-16T07:17:26.102Z,63.24
2023-04-16T07:19:56.075Z,63.49
2023-04-16T07:22:26.181Z,63.56
2023-04-16T07:25:03.101Z,63.67
2023-04-16T07:27:33.806Z,63.62
2023-04-16T07:30:04.125Z,63.27
2023-04-16T07:32:35.284Z,63.18
2023-04-16T07:35:08.760Z,63.35
2023-04-16T07:37:44.396Z,63.42
2023-04-16T07:40:17.506Z,63.04
2023-04-16T07:42:49.862Z,63.15
2023-04-16T07:45:20.555Z,62.95
2023-04-16T07:47:50.714Z,63.03
2023-04-16T07:50:22.884Z,63.13
2023-04-16T07:52:52.921Z,63.06
2023-04-16T07:55:27.654Z,63.03
2023-04-16T07:57:59.023Z,62.89
2023-04-16T08:00:29.311Z,63.33
2023-04-16T08:03:02.087Z,63.54
2023-04-16T08:05:32.341Z,63.55
2023-04-16T08:08:04.644Z,63.57
2023-04-16T08:10:38.533Z,63.58
2023-04-16T08:13:11.255Z,63.30
2023-04-16T08:15:41.341Z,63.19
2023-04-16T08:18:15.742Z,63.10
2023-04-16T08:20:46.346Z,63.35
2023-04-16T08:23:16.572Z,63.28
2023-04-16T08:25:51.793Z,63.22
2023-04-16T08:28:24.426Z,63.37
2023-04-16T08:30:54.627Z,63.45
2023-04-16T08:33:26.215Z,63.69
2023-04-16T08:35:56.347Z,63.38
2023-04-16T08:38:26.570Z,63.30
2023-04-16T08:41:04.765Z,63.25
2023-04-16T08:43:37.356Z,63.73
2023-04-16T08:46:08.557Z,63.40
2023-04-16T08:48:44.985Z,63.54
2023-04-16T08:51:17.810Z,63.42
2023-04-16T08:53:55.103Z,63.62
2023-04-16T08:56:28.560Z,63.73
2023-04-16T08:59:07.758Z,63.69
2023-04-16T09:01:39.899Z,63.51
2023-04-16T09:04:10.754Z,63.51
2023-04-16T09:06:45.268Z,63.47
2023-04-16T09:09:21.071Z,63.30
2023-04-16T09:12:00.207Z,63.54
2023-04-16T09:14:36.249Z,63.19
2023-04-16T09:17:09.762Z,62.52
2023-04-16T09:19:42.489Z,61.75
2023-04-16T09:22:17.313Z,61.00
2023-04-16T09:24:54.419Z,60.63
2023-04-16T09:27:28.531Z,61.00
2023-04-16T09:30:03.917Z,60.67
2023-04-16T09:32:44.725Z,60.67
2023-04-16T09:35:28.000Z,61.13
2023-04-16T09:38:00.931Z,61.12
2023-04-16T09:40:33.684Z,61.03
2023-04-16T09:43:14.407Z,61.40
2023-04-16T09:45:51.538Z,61.60
2023-04-16T09:48:35.338Z,62.15
2023-04-16T09:51:08.810Z,62.40
2023-04-16T09:53:39.569Z,62.72
2023-04-16T09:56:19.425Z,62.69
2023-04-16T09:58:52.159Z,63.08
2023-04-16T10:01:24.450Z,62.57
2023-04-16T10:03:57.196Z,62.47
2023-04-16T10:06:48.738Z,62.92
2023-04-16T10:09:21.179Z,62.58
2023-04-16T10:11:56.966Z,62.16
2023-04-16T10:17:43.492Z,61.62
2023-04-16T10:20:15.998Z,61.52
2023-04-16T10:22:47.764Z,61.10
2023-04-16T10:25:18.385Z,60.35
2023-04-16T10:27:48.684Z,60.10
2023-04-16T10:30:22.209Z,59.48
2023-04-16T10:32:53.905Z,59.27
2023-04-16T10:35:24.454Z,59.72
2023-04-16T10:37:59.903Z,59.65
2023-04-16T10:40:30.832Z,59.42
2023-04-16T10:43:05.291Z,59.41
2023-04-16T10:45:41.157Z,59.95
2023-04-16T10:48:17.333Z,59.89
2023-04-16T10:50:58.534Z,59.91
2023-04-16T10:53:35.478Z,59.27
2023-04-16T10:56:26.935Z,59.12
2023-04-16T10:59:03.505Z,58.27
2023-04-16T11:01:38.487Z,57.24
2023-04-16T11:04:30.268Z,57.67
2023-04-16T11:07:05.146Z,57.52
2023-04-16T11:09:55.217Z,57.32
2023-04-16T11:12:27.925Z,57.48
2023-04-16T11:15:02.379Z,57.57
2023-04-16T11:17:40.112Z,57.87
2023-04-16T11:20:19.351Z,57.64
2023-04-16T11:22:51.282Z,57.58
2023-04-16T11:25:57.936Z,57.56
2023-04-16T11:28:45.488Z,57.55
2023-04-16T11:31:17.436Z,57.13
2023-04-16T11:39:58.490Z,57.63
2023-04-16T11:42:37.686Z,57.63
2023-04-16T11:45:15.330Z,57.61
2023-04-16T11:48:16.348Z,57.50
2023-04-16T11:51:00.882Z,57.36
2023-04-16T11:53:41.038Z,57.18
2023-04-16T11:56:31.273Z,56.81
2023-04-16T11:59:28.172Z,56.67
2023-04-16T12:02:01.686Z,56.46
2023-04-16T12:04:34.624Z,56.50
2023-04-16T12:07:12.114Z,56.24
2023-04-16T12:09:47.679Z,56.46
2023-04-16T12:12:33.754Z,57.00
2023-04-16T12:15:16.400Z,57.56
2023-04-16T12:18:13.383Z,58.21
2023-04-16T12:20:51.840Z,58.29
2023-04-16T12:23:30.157Z,58.39
2023-04-16T12:26:16.548Z,58.67
2023-04-16T12:28:47.189Z,58.54
2023-04-16T12:31:19.168Z,59.02
2023-04-16T12:34:05.516Z,59.07
2023-04-16T12:36:39.432Z,58.60
2023-04-16T12:39:11.128Z,58.80
2023-04-16T12:41:47.172Z,58.90
2023-04-16T12:44:20.280Z,59.14
2023-04-16T12:46:52.973Z,58.84
2023-04-16T12:49:25.695Z,58.60
2023-04-16T12:51:57.646Z,59.13
2023-04-16T12:54:44.104Z,59.09
2023-04-16T12:57:16.983Z,59.11
2023-04-16T12:59:47.348Z,59.30
2023-04-16T13:02:17.751Z,59.51
2023-04-16T13:04:47.980Z,59.45
2023-04-16T13:07:18.358Z,59.76
2023-04-16T13:13:10.554Z,60.02
2023-04-16T13:15:41.302Z,59.76
2023-04-16T13:18:11.800Z,59.79
2023-04-16T13:20:42.283Z,59.30
2023-04-16T13:23:12.883Z,59.48
2023-04-16T13:25:43.504Z,59.76
2023-04-16T13:28:23.492Z,59.58
2023-04-16T13:30:57.016Z,59.54
2023-04-16T13:33:27.423Z,59.56
2023-04-16T13:36:00.712Z,59.76
2023-04-16T13:38:31.157Z,60.10
2023-04-16T13:41:01.464Z,59.82
2023-04-16T13:43:34.444Z,59.97
2023-04-16T13:46:11.272Z,59.80
2023-04-16T13:48:43.727Z,59.50
2023-04-16T13:51:15.598Z,59.35
2023-04-16T13:53:45.972Z,59.17
2023-04-16T13:56:16.479Z,59.15
2023-04-16T13:59:29.283Z,59.18
2023-04-16T14:02:05.322Z,58.52
2023-04-16T14:04:36.292Z,58.23
2023-04-16T14:07:10.819Z,58.21
2023-04-16T14:09:41.007Z,57.43
2023-04-16T14:12:20.095Z,57.16
2023-04-16T14:15:17.485Z,57.25
2023-04-16T14:17:52.444Z,57.49
2023-04-16T14:20:33.870Z,57.50
2023-04-16T14:23:07.695Z,57.41
2023-04-16T14:25:46.539Z,57.31
2023-04-16T14:28:17.402Z,57.03
2023-04-16T14:30:56.874Z,57.37
2023-04-16T14:33:30.757Z,57.20
2023-04-16T14:36:03.862Z,57.30
2023-04-16T14:39:30.336Z,57.89
2023-04-16T14:42:31.511Z,57.99
2023-04-16T14:45:17.995Z,57.99
2023-04-16T14:48:11.694Z,58.56
2023-04-16T14:51:14.025Z,59.04
2023-04-16T14:53:55.841Z,59.14
2023-04-16T14:56:29.128Z,59.43
2023-04-16T14:59:01.558Z,60.24
2023-04-16T15:01:39.886Z,60.48
2023-04-16T15:04:28.097Z,60.83
2023-04-16T15:07:14.381Z,60.45
2023-04-16T15:09:47.245Z,60.55
2023-04-16T15:12:19.089Z,61.10
2023-04-16T15:14:57.463Z,60.82
2023-04-16T15:17:35.296Z,60.41
2023-04-16T15:20:20.921Z,60.82
2023-04-16T15:22:59.758Z,60.52
2023-04-16T15:25:33.046Z,60.46
2023-04-16T15:28:06.717Z,60.08
2023-04-16T15:30:42.474Z,60.25
2023-04-16T15:33:23.890Z,60.14
2023-04-16T15:35:59.438Z,60.39
2023-04-16T15:38:37.195Z,60.25
2023-04-16T15:41:19.422Z,60.01
2023-04-16T15:43:59.276Z,60.16
2023-04-16T15:46:31.362Z,60.08
2023-04-16T15:49:06.274Z,60.02
2023-04-16T15:51:59.507Z,59.98
2023-04-16T15:54:39.043Z,60.16
2023-04-16T15:57:15.937Z,60.19
2023-04-16T16:00:05.468Z,60.34
2023-04-16T16:02:47.438Z,60.69
2023-04-16T16:05:21.824Z,60.69
2023-04-16T16:08:25.413Z,60.82
2023-04-16T16:11:06.227Z,60.80
2023-04-16T16:13:48.550Z,60.43
2023-04-16T16:16:20.206Z,60.51
2023-04-16T16:18:55.659Z,60.60
2023-04-16T16:21:29.759Z,60.69
2023-04-16T16:24:06.670Z,60.75
2023-04-16T16:26:41.445Z,60.77
2023-04-16T16:29:16.410Z,60.91
2023-04-16T16:31:51.404Z,61.05
2023-04-16T16:34:38.839Z,61.24
2023-04-16T16:37:09.357Z,61.23
2023-04-16T16:39:42.300Z,61.24
2023-04-16T16:42:24.535Z,61.28
2023-04-16T16:44:57.162Z,61.14
2023-04-16T16:51:32.791Z,60.46
2023-04-16T16:54:30.319Z,60.54
2023-04-16T16:57:25.132Z,60.51
2023-04-16T17:00:11.979Z,60.76
2023-04-16T17:02:58.122Z,60.69
2023-04-16T17:08:37.256Z,60.52
2023-04-16T17:11:07.915Z,60.46
2023-04-16T17:14:09.038Z,60.62
2023-04-16T17:16:50.018Z,60.29
2023-04-16T17:22:49.324Z,60.61
2023-04-16T17:25:26.826Z,60.99
2023-04-16T17:28:00.063Z,61.27
2023-04-16T17:31:37.791Z,61.73
2023-04-16T17:34:13.504Z,61.86
2023-04-16T17:37:09.965Z,61.63
2023-04-16T17:40:00.288Z,61.89
2023-04-16T17:42:34.258Z,62.09
2023-04-16T17:45:04.728Z,62.26
2023-04-16T17:47:44.786Z,62.25
2023-04-16T17:50:22.113Z,62.60
2023-04-16T17:53:23.833Z,62.78
2023-04-16T17:55:58.277Z,62.76
2023-04-16T17:58:43.638Z,62.96
2023-04-16T18:01:16.792Z,62.94
2023-04-16T18:03:52.670Z,62.96
2023-04-16T18:06:31.158Z,62.95
2023-04-16T18:09:11.164Z,62.74
2023-04-16T18:11:41.367Z,63.05
2023-04-16T18:14:21.995Z,63.04
2023-04-16T18:17:03.576Z,62.98
2023-04-16T18:19:40.724Z,62.68
2023-04-16T18:22:31.232Z,62.69
2023-04-16T18:25:08.450Z,62.49
2023-04-16T18:27:38.988Z,62.93
2023-04-16T18:30:23.135Z,63.22
2023-04-16T18:35:36.288Z,62.89
2023-04-16T18:38:11.344Z,62.81
2023-04-16T18:40:49.969Z,63.12
2023-04-16T18:43:24.200Z,63.11
2023-04-16T18:46:11.758Z,63.17
2023-04-16T18:48:47.238Z,62.96
2023-04-16T18:51:22.551Z,63.07
2023-04-16T18:53:56.699Z,63.00
2023-04-16T18:57:00.810Z,63.07
2023-04-16T18:59:31.221Z,63.30
2023-04-16T19:02:07.912Z,63.13
2023-04-16T19:04:38.373Z,63.30
2023-04-16T19:07:08.509Z,62.82
2023-04-16T19:09:43.526Z,62.91
2023-04-16T19:12:18.688Z,62.75
2023-04-16T19:14:53.187Z,62.92
2023-04-16T19:21:01.834Z,63.03
2023-04-16T19:23:52.787Z,63.04
2023-04-16T19:27:29.022Z,62.81
2023-04-16T19:29:45.425Z,62.54
2023-04-16T19:32:17.518Z,62.33
2023-04-16T19:34:55.136Z,62.57
2023-04-16T19:37:26.605Z,62.86
2023-04-16T19:40:04.165Z,62.60
2023-04-16T19:42:37.053Z,62.83
2023-04-16T19:45:11.686Z,63.10
2023-04-16T19:47:48.987Z,62.92
2023-04-16T19:50:19.234Z,62.91
2023-04-16T19:52:49.777Z,62.88
2023-04-16T19:55:42.172Z,62.95
2023-04-16T19:58:33.341Z,63.34
2023-04-16T20:01:30.821Z,63.13
2023-04-16T20:04:06.334Z,63.15
2023-04-16T20:06:39.101Z,63.07
2023-04-16T20:09:15.705Z,63.22
2023-04-16T20:11:50.572Z,63.31
2023-04-16T20:14:26.300Z,63.37
2023-04-16T20:17:00.194Z,63.35
2023-04-16T20:20:14.856Z,63.47
2023-04-16T20:22:46.780Z,63.31
2023-04-16T20:25:19.161Z,63.71
2023-04-16T20:27:56.535Z,63.49
2023-04-16T20:30:42.426Z,63.19
2023-04-16T20:33:16.292Z,62.96
2023-04-16T20:35:46.418Z,62.79
2023-04-16T20:38:18.438Z,62.75
2023-04-16T20:41:06.672Z,62.72
2023-04-16T20:43:40.474Z,62.62
2023-04-16T20:46:13.473Z,62.97
2023-04-16T20:48:56.283Z,62.96
2023-04-16T20:51:27.744Z,62.99
2023-04-16T20:54:03.121Z,62.84
2023-04-16T20:56:34.688Z,62.85
2023-04-16T20:59:17.712Z,62.88
2023-04-16T21:01:48.514Z,62.82
2023-04-16T21:04:30.790Z,63.21
2023-04-16T21:07:03.278Z,62.91
2023-04-16T21:09:42.628Z,62.99
2023-04-16T21:12:20.144Z,62.94
2023-04-16T21:14:50.184Z,62.42
2023-04-16T21:18:06.980Z,62.79
2023-04-16T21:20:49.341Z,62.66
2023-04-16T21:23:19.654Z,62.81
2023-04-16T21:25:49.756Z,63.10
2023-04-16T21:28:23.962Z,63.08
2023-04-16T21:31:02.214Z,63.12
2023-04-16T21:33:32.648Z,62.92
2023-04-16T21:36:09.108Z,62.78
2023-04-16T21:38:41.628Z,63.00
2023-04-16T21:41:11.894Z,63.29
2023-04-16T21:43:42.219Z,63.22
2023-04-16T21:46:15.597Z,63.55
2023-04-16T21:48:45.978Z,63.36
2023-04-16T21:51:20.273Z,63.15
2023-04-16T21:53:50.263Z,63.19
2023-04-16T21:56:20.309Z,63.19
2023-04-16T21:58:50.519Z,63.16
2023-04-16T22:01:20.935Z,62.93
2023-04-16T22:03:52.394Z,62.96
2023-04-16T22:06:26.268Z,63.14
2023-04-16T22:08:58.952Z,62.96
2023-04-16T22:11:30.138Z,63.18
2023-04-16T22:14:00.255Z,63.33
2023-04-16T22:16:31.223Z,63.40
2023-04-16T22:19:01.349Z,63.67
2023-04-16T22:21:34.278Z,63.62
2023-04-16T22:24:04.424Z,63.43
2023-04-16T22:26:34.508Z,63.53
2023-04-16T22:29:04.948Z,63.39
2023-04-16T22:31:35.594Z,63.09
2023-04-16T22:34:06.524Z,63.00
2023-04-16T22:36:42.362Z,63.13
2023-04-16T22:39:13.845Z,63.08
2023-04-16T22:41:50.050Z,62.94
2023-04-16T22:44:20.143Z,63.16
2023-04-16T22:46:50.452Z,62.75
2023-04-16T22:49:20.824Z,62.64
2023-04-16T22:51:53.509Z,62.75
2023-04-16T22:54:23.726Z,62.77
2023-04-16T22:56:53.877Z,62.77
2023-04-16T22:59:24.015Z,62.92
2023-04-16T23:01:57.456Z,62.75
2023-04-16T23:04:27.760Z,62.83
2023-04-16T23:07:00.757Z,62.62
2023-04-16T23:09:30.854Z,63.08
2023-04-16T23:12:02.150Z,62.85
2023-04-16T23:14:32.251Z,62.66
2023-04-16T23:17:02.782Z,62.64
2023-04-16T23:19:32.924Z,62.55
2023-04-16T23:22:05.640Z,62.59
2023-04-16T23:24:35.957Z,62.37
2023-04-16T23:27:06.211Z,62.31
2023-04-16T23:29:36.317Z,62.42
2023-04-16T23:32:06.577Z,62.72
2023-04-16T23:34:36.750Z,62.80
2023-04-16T23:37:10.692Z,62.99
2023-04-16T23:39:40.880Z,63.01
2023-04-16T23:42:11.409Z,63.10
2023-04-16T23:44:41.687Z,63.35
2023-04-16T23:47:11.893Z,63.17
2023-04-16T23:49:41.985Z,63.14
2023-04-16T23:52:15.006Z,62.92
2023-04-16T23:54:45.116Z,62.81
2023-04-16T23:57:15.409Z,62.73
2023-04-16T23:59:45.769Z,62.77
